Maupin, OR

6:01 PM PST on February 09, 2016 (GMT -0800)
Sportsmans Park | | Change Station
CLOSE
Current Station
Personal Weather Station
Location: Tygh Valley, OR
Elevation: 2293 ft
Nearby Weather Stations

Elev 2293 ft 45.22 °N, 121.40 °W | Updated 8 minutes ago

Partly Cloudy
Partly Cloudy
38.8 °F
Feels Like 39 °F
N
2.2
Wind Variable Wind from WSW

Today
High -- | Low -- °F
--% Chance of Precip.
Yesterday
High -- | Low -- °F
Precip. -- in
Pressure 30.29 in
Visibility 10.0 miles
Clouds Clear
Windchill 39 °F
Dew Point 36 °F
Humidity 90%
Rainfall 0.00 in
Snow Depth Not available.
7:15 AM 5:24 PM
Waxing Crescent, 3% visible
METAR KRDM 100156Z 30007KT 10SM CLR 08/03 A3024 RMK AO2 SLP255 T00830028
Pressure 30.29 in
Visibility 10.0 miles
Clouds Clear
Windchill 39 °F
Dew Point 36 °F
Humidity 90%
Rainfall 0.00 in
Snow Depth Not available.
7:15 AM 5:24 PM
Waxing Crescent, 3% visible
METAR KRDM 100156Z 30007KT 10SM CLR 08/03 A3024 RMK AO2 SLP255 T00830028

10-Day Weather Forecast

Almanac

Astronomy

Feb. 09, 2016 Rise Set
Actual Time
Civil Twilight
Nautical Twilight
Astronomical Twilight
Moon
Length of Visible Light
Length of Day
Tomorrow will be .
, % of the Moon is Illuminated

Today's Extremes

State Highs State Lows

Community

WunderPhotos

Upload Photos

1,891,760 photos uploaded!

WunderBlog® & News

Nearby

Air Quality

  Air Quality AQ Index Pollutant
Not available.

Snow Depth

Station Depth Elevation

Earthquake Activity

City Distance Mag. Time & Date
Minimum magnitude displayed is 2.5.

Coastal Water Temperatures

Place Temperature

Stations

Nearby Weather Stations

Station Location Temp. Windchill Dew Point Humidity Wind Precip. Elev Updated Type
                   

Watches & Warnings

There are currently no watches in effect.